createdAt,value
2018-01-13T00:00:59.419Z,963.57
2018-01-13T00:01:59.482Z,963.59
2018-01-13T00:02:59.447Z,963.61
2018-01-13T00:03:59.462Z,963.57
2018-01-13T00:04:59.489Z,963.57
2018-01-13T00:05:59.492Z,963.58
2018-01-13T00:06:59.540Z,963.59
2018-01-13T00:07:59.534Z,963.52
2018-01-13T00:08:59.537Z,963.59
2018-01-13T00:09:59.555Z,963.55
2018-01-13T00:10:59.571Z,963.62
2018-01-13T00:11:59.583Z,963.53
2018-01-13T00:12:59.597Z,963.59
2018-01-13T00:13:59.614Z,963.55
2018-01-13T00:14:59.626Z,963.6
2018-01-13T00:15:59.642Z,963.57
2018-01-13T00:16:59.707Z,963.59
2018-01-13T00:17:59.672Z,963.55
2018-01-13T00:18:59.705Z,963.54
2018-01-13T00:19:59.702Z,963.53
2018-01-13T00:20:59.728Z,963.51
2018-01-13T00:21:59.733Z,963.53
2018-01-13T00:22:59.748Z,963.55
2018-01-13T00:23:59.762Z,963.53
2018-01-13T00:24:59.779Z,963.51
2018-01-13T00:25:59.792Z,963.51
2018-01-13T00:26:59.808Z,963.52
2018-01-13T00:27:59.823Z,963.52
2018-01-13T00:28:59.837Z,963.5
2018-01-13T00:29:59.855Z,963.48
2018-01-13T00:30:59.868Z,963.47
2018-01-13T00:31:59.933Z,963.49
2018-01-13T00:32:59.899Z,963.5
2018-01-13T00:33:59.914Z,963.47
2018-01-13T00:34:59.929Z,963.5
2018-01-13T00:35:59.947Z,963.5
2018-01-13T00:36:59.958Z,963.47
2018-01-13T00:37:59.973Z,963.51
2018-01-13T00:38:59.988Z,963.51
2018-01-13T00:40:00.009Z,963.48
2018-01-13T00:41:00.023Z,963.49
2018-01-13T00:42:00.037Z,963.54
2018-01-13T00:43:00.050Z,963.51
2018-01-13T00:44:00.065Z,963.48
2018-01-13T00:45:00.081Z,963.47
2018-01-13T00:46:00.094Z,963.46
2018-01-13T00:47:00.160Z,963.47
2018-01-13T00:48:00.125Z,963.5
2018-01-13T00:49:00.141Z,963.45
2018-01-13T00:50:00.155Z,963.42
2018-01-13T00:51:00.169Z,963.43
2018-01-13T00:52:00.185Z,963.43
2018-01-13T00:53:00.199Z,963.44
2018-01-13T00:54:00.216Z,963.38
2018-01-13T00:55:00.237Z,963.42
2018-01-13T00:56:00.245Z,963.41
2018-01-13T00:57:00.260Z,963.45
2018-01-13T00:58:00.299Z,963.39
2018-01-13T00:59:00.296Z,963.39
2018-01-13T01:00:00.306Z,963.36
2018-01-13T01:01:00.320Z,963.36
2018-01-13T01:02:00.386Z,963.36
2018-01-13T01:03:00.351Z,963.37
2018-01-13T01:04:00.365Z,963.36
2018-01-13T01:05:00.380Z,963.31
2018-01-13T01:06:00.396Z,963.32
2018-01-13T01:07:00.414Z,963.33
2018-01-13T01:08:00.425Z,963.33
2018-01-13T01:09:00.440Z,963.36
2018-01-13T01:10:00.456Z,963.35
2018-01-13T01:11:00.472Z,963.37
2018-01-13T01:12:00.485Z,963.31
2018-01-13T01:13:00.502Z,963.31
2018-01-13T01:14:00.517Z,963.32
2018-01-13T01:15:00.530Z,963.32
2018-01-13T01:16:00.546Z,963.32
2018-01-13T01:17:00.611Z,963.37
2018-01-13T01:18:00.577Z,963.33
2018-01-13T01:19:00.591Z,963.33
2018-01-13T01:20:00.609Z,963.34
2018-01-13T01:21:00.621Z,963.31
2018-01-13T01:22:00.636Z,963.27
2018-01-13T01:23:00.652Z,963.32
2018-01-13T01:24:00.666Z,963.3
2018-01-13T01:25:00.682Z,963.3
2018-01-13T01:26:00.697Z,963.26
2018-01-13T01:27:00.717Z,963.26
2018-01-13T01:28:00.727Z,963.25
2018-01-13T01:29:00.743Z,963.26
2018-01-13T01:30:00.761Z,963.24
2018-01-13T01:31:00.777Z,963.26
2018-01-13T01:32:00.838Z,963.25
2018-01-13T01:33:00.803Z,963.25
2018-01-13T01:34:00.817Z,963.23
2018-01-13T01:35:00.834Z,963.27
2018-01-13T01:36:00.848Z,963.27
2018-01-13T01:37:00.862Z,963.26
2018-01-13T01:38:00.878Z,963.29
2018-01-13T01:39:00.893Z,963.3
2018-01-13T01:40:00.909Z,963.27
2018-01-13T01:41:00.922Z,963.27
2018-01-13T01:42:00.937Z,963.3
2018-01-13T01:43:00.953Z,963.29
2018-01-13T01:44:00.969Z,963.28
2018-01-13T01:45:00.984Z,963.24
2018-01-13T01:46:01.000Z,963.23
2018-01-13T01:47:01.164Z,963.29
2018-01-13T01:48:01.030Z,963.28
2018-01-13T01:49:01.068Z,963.28
2018-01-13T01:50:01.065Z,963.26
2018-01-13T01:51:01.074Z,963.23
2018-01-13T01:52:01.089Z,963.25
2018-01-13T01:53:01.104Z,963.26
2018-01-13T01:54:01.120Z,963.25
2018-01-13T01:55:01.134Z,963.21
2018-01-13T01:56:01.200Z,963.21
2018-01-13T01:57:01.164Z,963.22
2018-01-13T01:58:01.180Z,963.23
2018-01-13T01:59:01.194Z,963.21
2018-01-13T02:00:01.210Z,963.23
2018-01-13T02:01:01.225Z,963.2
2018-01-13T02:02:01.292Z,963.26
2018-01-13T02:03:01.255Z,963.23
2018-01-13T02:04:01.269Z,963.27
2018-01-13T02:05:01.287Z,963.26
2018-01-13T02:06:01.299Z,963.28
2018-01-13T02:07:01.315Z,963.25
2018-01-13T02:08:01.330Z,963.28
2018-01-13T02:09:01.345Z,963.23
2018-01-13T02:10:01.361Z,963.26
2018-01-13T02:11:01.376Z,963.26
2018-01-13T02:12:01.391Z,963.23
2018-01-13T02:13:01.406Z,963.26
2018-01-13T02:14:01.420Z,963.23
2018-01-13T02:15:01.436Z,963.26
2018-01-13T02:16:01.451Z,963.27
2018-01-13T02:17:01.514Z,963.25
2018-01-13T02:18:01.487Z,963.26
2018-01-13T02:19:01.496Z,963.28
2018-01-13T02:20:01.510Z,963.25
2018-01-13T02:21:01.524Z,963.29
2018-01-13T02:22:01.639Z,963.27
2018-01-13T02:23:01.555Z,963.22
2018-01-13T02:24:01.618Z,963.23
2018-01-13T02:25:01.587Z,963.23
2018-01-13T02:26:01.600Z,963.26
2018-01-13T02:27:01.615Z,963.23
2018-01-13T02:28:01.629Z,963.21
2018-01-13T02:29:01.645Z,963.29
2018-01-13T02:30:01.659Z,963.27
2018-01-13T02:31:01.672Z,963.31
2018-01-13T02:32:01.738Z,963.27
2018-01-13T02:33:01.702Z,963.29
2018-01-13T02:34:01.719Z,963.24
2018-01-13T02:35:01.734Z,963.25
2018-01-13T02:36:01.747Z,963.27
2018-01-13T02:37:01.761Z,963.25
2018-01-13T02:38:01.779Z,963.27
2018-01-13T02:39:01.993Z,963.27
2018-01-13T02:40:01.807Z,963.3
2018-01-13T02:41:01.821Z,963.26
2018-01-13T02:42:01.836Z,963.27
2018-01-13T02:43:01.852Z,963.27
2018-01-13T02:44:01.965Z,963.26
2018-01-13T02:45:01.879Z,963.26
2018-01-13T02:46:01.895Z,963.22
2018-01-13T02:47:01.909Z,963.25
2018-01-13T02:48:01.925Z,963.24
2018-01-13T02:49:02.040Z,963.25
2018-01-13T02:50:01.953Z,963.2
2018-01-13T02:51:01.967Z,963.19
2018-01-13T02:52:01.987Z,963.22
2018-01-13T02:53:01.998Z,963.23
2018-01-13T02:54:02.012Z,963.25
2018-01-13T02:55:02.028Z,963.25
2018-01-13T02:56:02.044Z,963.24
2018-01-13T02:57:02.057Z,963.18
2018-01-13T02:58:02.071Z,963.21
2018-01-13T02:59:02.085Z,963.18
2018-01-13T03:00:02.102Z,963.17
2018-01-13T03:01:02.115Z,963.19
2018-01-13T03:02:02.131Z,963.23
2018-01-13T03:03:02.146Z,963.16
2018-01-13T03:04:02.211Z,963.25
2018-01-13T03:05:02.175Z,963.18
2018-01-13T03:06:02.189Z,963.21
2018-01-13T03:07:02.204Z,963.17
2018-01-13T03:08:02.220Z,963.14
2018-01-13T03:09:02.255Z,963.19
2018-01-13T03:10:02.250Z,963.16
2018-01-13T03:11:02.265Z,963.15
2018-01-13T03:12:02.279Z,963.16
2018-01-13T03:13:02.293Z,963.13
2018-01-13T03:14:02.309Z,963.08
2018-01-13T03:15:02.325Z,963.11
2018-01-13T03:16:02.344Z,963.07
2018-01-13T03:17:02.354Z,963.05
2018-01-13T03:18:02.369Z,963.04
2018-01-13T03:19:02.433Z,963.03
2018-01-13T03:20:02.398Z,963.01
2018-01-13T03:21:02.413Z,963
2018-01-13T03:22:02.429Z,963.05
2018-01-13T03:23:02.442Z,963.04
2018-01-13T03:24:02.459Z,963.02
2018-01-13T03:25:02.473Z,963
2018-01-13T03:26:02.489Z,962.99
2018-01-13T03:27:02.504Z,962.99
2018-01-13T03:28:02.518Z,962.98
2018-01-13T03:29:02.534Z,962.99
2018-01-13T03:30:02.551Z,962.95
2018-01-13T03:31:02.563Z,962.94
2018-01-13T03:32:02.578Z,962.94
2018-01-13T03:33:02.592Z,962.89
2018-01-13T03:34:02.657Z,962.93
2018-01-13T03:35:02.622Z,962.9
2018-01-13T03:36:02.636Z,962.89
2018-01-13T03:37:02.652Z,962.91
2018-01-13T03:38:02.673Z,962.89
2018-01-13T03:39:02.781Z,962.85
2018-01-13T03:40:02.695Z,962.91
2018-01-13T03:41:02.710Z,962.88
2018-01-13T03:42:02.724Z,962.87
2018-01-13T03:43:02.739Z,962.84
2018-01-13T03:44:02.755Z,962.86
2018-01-13T03:45:02.770Z,962.8
2018-01-13T03:46:02.787Z,962.82
2018-01-13T03:47:02.799Z,962.76
2018-01-13T03:48:02.813Z,962.8
2018-01-13T03:49:02.877Z,962.8
2018-01-13T03:50:02.842Z,962.77
2018-01-13T03:51:02.856Z,962.75
2018-01-13T03:52:02.872Z,962.78
2018-01-13T03:53:02.887Z,962.76
2018-01-13T03:54:02.901Z,962.75
2018-01-13T03:55:02.916Z,962.73
2018-01-13T03:56:02.930Z,962.72
2018-01-13T03:57:02.944Z,962.72
2018-01-13T03:58:02.960Z,962.73
2018-01-13T03:59:02.975Z,962.69
2018-01-13T04:00:02.989Z,962.72
2018-01-13T04:01:03.003Z,962.76
2018-01-13T04:02:03.018Z,962.7
2018-01-13T04:03:03.032Z,962.72
2018-01-13T04:04:04.198Z,962.69
2018-01-13T04:05:03.061Z,962.68
2018-01-13T04:06:03.075Z,962.68
2018-01-13T04:07:03.091Z,962.7
2018-01-13T04:08:03.104Z,962.71
2018-01-13T04:09:03.118Z,962.68
2018-01-13T04:10:03.135Z,962.69
2018-01-13T04:11:03.148Z,962.68
2018-01-13T04:12:03.162Z,962.72
2018-01-13T04:13:03.177Z,962.68
2018-01-13T04:14:03.190Z,962.61
2018-01-13T04:15:03.208Z,962.67
2018-01-13T04:16:03.221Z,962.66
2018-01-13T04:17:03.236Z,962.65
2018-01-13T04:18:03.250Z,962.67
2018-01-13T04:19:03.264Z,962.69
2018-01-13T04:20:03.279Z,962.71
2018-01-13T04:21:03.295Z,962.69
2018-01-13T04:22:03.310Z,962.64
2018-01-13T04:23:03.324Z,962.64
2018-01-13T04:24:03.338Z,962.59
2018-01-13T04:25:03.352Z,962.6
2018-01-13T04:26:03.366Z,962.61
2018-01-13T04:27:03.384Z,962.58
2018-01-13T04:28:03.400Z,962.59
2018-01-13T04:29:03.411Z,962.6
2018-01-13T04:30:03.424Z,962.6
2018-01-13T04:31:03.439Z,962.6
2018-01-13T04:32:03.455Z,962.56
2018-01-13T04:33:03.467Z,962.56
2018-01-13T04:34:03.484Z,962.57
2018-01-13T04:35:03.502Z,962.58
2018-01-13T04:36:03.565Z,962.61
2018-01-13T04:37:03.526Z,962.56
2018-01-13T04:38:03.542Z,962.58
2018-01-13T04:39:03.556Z,962.57
2018-01-13T04:40:03.569Z,962.57
2018-01-13T04:41:03.684Z,962.61
2018-01-13T04:42:03.600Z,962.59
2018-01-13T04:43:03.615Z,962.61
2018-01-13T04:44:03.629Z,962.57
2018-01-13T04:45:03.645Z,962.66
2018-01-13T04:46:03.658Z,962.61
2018-01-13T04:47:03.673Z,962.61
2018-01-13T04:48:03.687Z,962.6
2018-01-13T04:49:03.701Z,962.58
2018-01-13T04:50:03.717Z,962.57
2018-01-13T04:51:03.793Z,962.51
2018-01-13T04:52:03.745Z,962.51
2018-01-13T04:53:03.760Z,962.52
2018-01-13T04:54:03.776Z,962.53
2018-01-13T04:55:03.791Z,962.51
2018-01-13T04:56:03.804Z,962.52
2018-01-13T04:57:03.819Z,962.51
2018-01-13T04:58:03.836Z,962.51
2018-01-13T04:59:03.849Z,962.52
2018-01-13T05:00:03.864Z,962.44
2018-01-13T05:01:03.879Z,962.49
2018-01-13T05:02:03.892Z,962.5
2018-01-13T05:03:03.909Z,962.5
2018-01-13T05:04:03.922Z,962.48
2018-01-13T05:05:03.940Z,962.44
2018-01-13T05:06:04.000Z,962.44
2018-01-13T05:07:03.966Z,962.44
2018-01-13T05:08:03.980Z,962.43
2018-01-13T05:09:03.993Z,962.42
2018-01-13T05:10:04.009Z,962.43
2018-01-13T05:11:04.025Z,962.41
2018-01-13T05:12:04.040Z,962.39
2018-01-13T05:13:04.054Z,962.46
2018-01-13T05:14:04.069Z,962.51
2018-01-13T05:15:04.084Z,962.42
2018-01-13T05:16:04.097Z,962.49
2018-01-13T05:17:04.112Z,962.48
2018-01-13T05:18:04.129Z,962.44
2018-01-13T05:19:04.144Z,962.44
2018-01-13T05:20:04.157Z,962.48
2018-01-13T05:21:04.224Z,962.45
2018-01-13T05:22:04.189Z,962.56
2018-01-13T05:23:04.202Z,962.48
2018-01-13T05:24:04.217Z,962.5
2018-01-13T05:25:04.232Z,962.53
2018-01-13T05:26:04.247Z,962.53
2018-01-13T05:27:04.277Z,962.56
2018-01-13T05:28:04.278Z,962.48
2018-01-13T05:29:04.292Z,962.47
2018-01-13T05:30:04.306Z,962.53
2018-01-13T05:31:04.320Z,962.53
2018-01-13T05:32:04.336Z,962.51
2018-01-13T05:33:04.351Z,962.53
2018-01-13T05:34:04.366Z,962.53
2018-01-13T05:35:04.380Z,962.52
2018-01-13T05:36:04.448Z,962.52
2018-01-13T05:37:04.411Z,962.47
2018-01-13T05:38:04.424Z,962.5
2018-01-13T05:39:04.440Z,962.45
2018-01-13T05:40:04.454Z,962.54
2018-01-13T05:41:04.469Z,962.49
2018-01-13T05:42:04.485Z,962.51
2018-01-13T05:43:04.499Z,962.55
2018-01-13T05:44:04.515Z,962.54
2018-01-13T05:45:04.528Z,962.58
2018-01-13T05:46:04.543Z,962.59
2018-01-13T05:47:04.558Z,962.6
2018-01-13T05:48:04.574Z,962.61
2018-01-13T05:49:04.588Z,962.63
2018-01-13T05:50:04.603Z,962.66
2018-01-13T05:51:04.669Z,962.67
2018-01-13T05:52:04.634Z,962.69
2018-01-13T05:53:04.648Z,962.66
2018-01-13T05:54:04.663Z,962.72
2018-01-13T05:55:04.677Z,962.69
2018-01-13T05:56:04.696Z,962.72
2018-01-13T05:57:04.707Z,962.72
2018-01-13T05:58:04.722Z,962.74
2018-01-13T05:59:04.737Z,962.73
2018-01-13T06:00:04.751Z,962.75
2018-01-13T06:01:04.765Z,962.78
2018-01-13T06:02:04.782Z,962.75
2018-01-13T06:03:04.797Z,962.81
2018-01-13T06:04:04.816Z,962.69
2018-01-13T06:05:04.826Z,962.7
2018-01-13T06:06:04.891Z,962.7
2018-01-13T06:07:04.858Z,962.7
2018-01-13T06:08:04.870Z,962.71
2018-01-13T06:09:04.886Z,962.72
2018-01-13T06:10:04.899Z,962.7
2018-01-13T06:11:04.913Z,962.73
2018-01-13T06:12:04.929Z,962.68
2018-01-13T06:13:04.943Z,962.67
2018-01-13T06:14:04.960Z,962.7
2018-01-13T06:15:04.972Z,962.7
2018-01-13T06:16:04.989Z,962.7
2018-01-13T06:17:05.002Z,962.72
2018-01-13T06:18:05.017Z,962.71
2018-01-13T06:19:05.033Z,962.73
2018-01-13T06:20:05.046Z,962.7
2018-01-13T06:21:05.110Z,962.65
2018-01-13T06:22:05.074Z,962.71
2018-01-13T06:23:05.090Z,962.66
2018-01-13T06:24:05.103Z,962.68
2018-01-13T06:25:05.119Z,962.69
2018-01-13T06:26:05.132Z,962.69
2018-01-13T06:27:05.146Z,962.69
2018-01-13T06:28:05.162Z,962.68
2018-01-13T06:29:05.176Z,962.68
2018-01-13T06:30:05.192Z,962.67
2018-01-13T06:31:05.204Z,962.6
2018-01-13T06:32:05.219Z,962.62
2018-01-13T06:33:05.234Z,962.67
2018-01-13T06:34:05.248Z,962.67
2018-01-13T06:35:05.267Z,962.66
2018-01-13T06:36:05.327Z,962.68
2018-01-13T06:37:05.291Z,962.64
2018-01-13T06:38:05.309Z,962.7
2018-01-13T06:39:05.320Z,962.63
2018-01-13T06:40:05.336Z,962.64
2018-01-13T06:41:05.348Z,962.64
2018-01-13T06:42:05.363Z,962.62
2018-01-13T06:43:05.379Z,962.59
2018-01-13T06:44:05.392Z,962.55
2018-01-13T06:45:05.406Z,962.61
2018-01-13T06:46:05.424Z,962.62
2018-01-13T06:47:05.437Z,962.62
2018-01-13T06:48:05.450Z,962.6
2018-01-13T06:49:05.464Z,962.59
2018-01-13T06:50:05.480Z,962.57
2018-01-13T06:51:05.492Z,962.58
2018-01-13T06:52:05.510Z,962.63
2018-01-13T06:53:05.522Z,962.62
2018-01-13T06:54:05.537Z,962.61
2018-01-13T06:55:05.551Z,962.58
2018-01-13T06:56:05.566Z,962.6
2018-01-13T06:57:05.580Z,962.64
2018-01-13T06:58:05.595Z,962.62
2018-01-13T06:59:05.609Z,962.64
2018-01-13T07:00:05.626Z,962.61
2018-01-13T07:01:05.637Z,962.65
2018-01-13T07:02:05.651Z,962.64
2018-01-13T07:03:05.666Z,962.67
2018-01-13T07:04:05.679Z,962.61
2018-01-13T07:05:05.693Z,962.6
2018-01-13T07:06:05.707Z,962.62
2018-01-13T07:07:05.722Z,962.63
2018-01-13T07:08:05.737Z,962.59
2018-01-13T07:09:05.752Z,962.53
2018-01-13T07:10:05.768Z,962.56
2018-01-13T07:11:05.779Z,962.55
2018-01-13T07:12:05.794Z,962.6
2018-01-13T07:13:05.813Z,962.57
2018-01-13T07:14:05.823Z,962.55
2018-01-13T07:15:05.837Z,962.57
2018-01-13T07:16:05.851Z,962.62
2018-01-13T07:17:05.865Z,962.56
2018-01-13T07:18:05.879Z,962.58
2018-01-13T07:19:05.894Z,962.6
2018-01-13T07:20:05.908Z,962.55
2018-01-13T07:21:05.922Z,962.61
2018-01-13T07:22:05.936Z,962.61
2018-01-13T07:23:05.999Z,962.59
2018-01-13T07:24:05.964Z,962.51
2018-01-13T07:25:05.978Z,962.54
2018-01-13T07:26:05.997Z,962.53
2018-01-13T07:27:06.008Z,962.42
2018-01-13T07:28:06.022Z,962.54
2018-01-13T07:29:06.035Z,962.56
2018-01-13T07:30:06.049Z,962.54
2018-01-13T07:31:06.064Z,962.53
2018-01-13T07:32:06.079Z,962.57
2018-01-13T07:33:06.091Z,962.57
2018-01-13T07:34:06.106Z,962.55
2018-01-13T07:35:06.120Z,962.61
2018-01-13T07:36:06.134Z,962.61
2018-01-13T07:37:06.149Z,962.66
2018-01-13T07:38:06.234Z,962.56
2018-01-13T07:39:06.174Z,962.55
2018-01-13T07:40:06.190Z,962.56
2018-01-13T07:41:06.205Z,962.59
2018-01-13T07:42:06.220Z,962.54
2018-01-13T07:43:06.333Z,962.52
2018-01-13T07:44:06.248Z,962.49
2018-01-13T07:45:06.266Z,962.52
2018-01-13T07:46:06.275Z,962.56
2018-01-13T07:47:06.290Z,962.54
2018-01-13T07:48:06.305Z,962.59
2018-01-13T07:49:06.320Z,962.54
2018-01-13T07:50:06.334Z,962.62
2018-01-13T07:51:06.348Z,962.54
2018-01-13T07:52:06.367Z,962.6
2018-01-13T07:53:06.473Z,962.56
2018-01-13T07:54:06.390Z,962.54
2018-01-13T07:55:06.405Z,962.6
2018-01-13T07:56:06.419Z,962.6
2018-01-13T07:57:06.437Z,962.58
2018-01-13T07:58:06.447Z,962.55
2018-01-13T07:59:06.461Z,962.63
2018-01-13T08:00:06.480Z,962.62
2018-01-13T08:01:06.489Z,962.59
2018-01-13T08:02:06.504Z,962.62
2018-01-13T08:03:06.521Z,962.66
2018-01-13T08:04:06.535Z,962.64
2018-01-13T08:05:06.550Z,962.64
2018-01-13T08:06:06.565Z,962.63
2018-01-13T08:07:06.581Z,962.59
2018-01-13T08:08:06.642Z,962.62
2018-01-13T08:09:06.608Z,962.56
2018-01-13T08:10:06.623Z,962.58
2018-01-13T08:11:06.637Z,962.59
2018-01-13T08:12:06.651Z,962.54
2018-01-13T08:13:06.664Z,962.51
2018-01-13T08:14:06.679Z,962.47
2018-01-13T08:15:06.700Z,962.5
2018-01-13T08:16:06.710Z,962.46
2018-01-13T08:17:06.724Z,962.43
2018-01-13T08:18:06.740Z,962.43
2018-01-13T08:19:06.752Z,962.43
2018-01-13T08:20:06.767Z,962.43
2018-01-13T08:21:06.784Z,962.43
2018-01-13T08:22:06.796Z,962.38
2018-01-13T08:23:06.910Z,962.42
2018-01-13T08:24:06.825Z,962.43
2018-01-13T08:25:06.839Z,962.41
2018-01-13T08:26:06.860Z,962.39
2018-01-13T08:27:06.867Z,962.37
2018-01-13T08:28:06.920Z,962.37
2018-01-13T08:29:06.898Z,962.33
2018-01-13T08:30:06.912Z,962.35
2018-01-13T08:31:06.928Z,962.32
2018-01-13T08:32:06.941Z,962.32
2018-01-13T08:33:06.960Z,962.41
2018-01-13T08:34:06.971Z,962.39
2018-01-13T08:35:06.986Z,962.42
2018-01-13T08:36:07.001Z,962.33
2018-01-13T08:37:07.015Z,962.4
2018-01-13T08:38:07.082Z,962.37
2018-01-13T08:39:07.044Z,962.33
2018-01-13T08:40:07.059Z,962.31
2018-01-13T08:41:07.072Z,962.39
2018-01-13T08:42:07.088Z,962.33
2018-01-13T08:43:07.104Z,962.35
2018-01-13T08:44:07.118Z,962.3
2018-01-13T08:45:07.131Z,962.29
2018-01-13T08:46:07.148Z,962.33
2018-01-13T08:47:07.160Z,962.35
2018-01-13T08:48:07.175Z,962.36
2018-01-13T08:49:07.190Z,962.3
2018-01-13T08:50:07.205Z,962.32
2018-01-13T08:51:07.220Z,962.36
2018-01-13T08:52:07.233Z,962.36
2018-01-13T08:53:07.249Z,962.4
2018-01-13T08:54:07.264Z,962.36
2018-01-13T08:55:07.278Z,962.4
2018-01-13T08:56:07.293Z,962.38
2018-01-13T08:57:07.309Z,962.43
2018-01-13T08:58:07.323Z,962.42
2018-01-13T08:59:07.337Z,962.39
2018-01-13T09:00:07.353Z,962.44
2018-01-13T09:01:07.366Z,962.43
2018-01-13T09:02:07.382Z,962.39
2018-01-13T09:03:07.396Z,962.37
2018-01-13T09:04:07.412Z,962.41
2018-01-13T09:05:07.429Z,962.35
2018-01-13T09:06:07.441Z,962.41
2018-01-13T09:07:07.455Z,962.36
2018-01-13T09:08:07.469Z,962.36
2018-01-13T09:09:07.483Z,962.42
2018-01-13T09:10:07.499Z,962.36
2018-01-13T09:11:07.514Z,962.4
2018-01-13T09:12:07.527Z,962.42
2018-01-13T09:13:07.543Z,962.44
2018-01-13T09:14:07.561Z,962.43
2018-01-13T09:15:07.575Z,962.43
2018-01-13T09:16:07.588Z,962.45
2018-01-13T09:17:07.602Z,962.39
2018-01-13T09:18:07.615Z,962.4
2018-01-13T09:19:07.633Z,962.37
2018-01-13T09:20:07.645Z,962.36
2018-01-13T09:21:07.658Z,962.31
2018-01-13T09:22:07.672Z,962.32
2018-01-13T09:23:07.688Z,962.33
2018-01-13T09:24:07.702Z,962.3
2018-01-13T09:25:07.716Z,962.31
2018-01-13T09:26:07.732Z,962.35
2018-01-13T09:27:07.746Z,962.31
2018-01-13T09:28:07.760Z,962.36
2018-01-13T09:29:07.776Z,962.36
2018-01-13T09:30:07.791Z,962.39
2018-01-13T09:31:07.807Z,962.43
2018-01-13T09:32:07.820Z,962.41
2018-01-13T09:33:07.836Z,962.37
2018-01-13T09:34:07.882Z,962.4
2018-01-13T09:35:07.865Z,962.42
2018-01-13T09:36:07.879Z,962.37
2018-01-13T09:37:07.895Z,962.4
2018-01-13T09:38:07.909Z,962.43
2018-01-13T09:39:07.924Z,962.43
2018-01-13T09:40:07.939Z,962.37
2018-01-13T09:41:07.970Z,962.41
2018-01-13T09:42:07.973Z,962.41
2018-01-13T09:43:07.982Z,962.4
2018-01-13T09:44:07.998Z,962.37
2018-01-13T09:45:08.014Z,962.38
2018-01-13T09:46:08.029Z,962.39
2018-01-13T09:47:08.045Z,962.38
2018-01-13T09:48:08.061Z,962.38
2018-01-13T09:49:08.075Z,962.36
2018-01-13T09:50:08.088Z,962.37
2018-01-13T09:51:08.104Z,962.36
2018-01-13T09:52:08.119Z,962.35
2018-01-13T09:53:08.134Z,962.36
2018-01-13T09:54:08.148Z,962.35
2018-01-13T09:55:08.164Z,962.31
2018-01-13T09:56:08.179Z,962.3
2018-01-13T09:57:08.221Z,962.3
2018-01-13T09:58:08.209Z,962.31
2018-01-13T09:59:08.227Z,962.34
2018-01-13T10:00:08.240Z,962.33
2018-01-13T10:01:08.254Z,962.31
2018-01-13T10:02:08.270Z,962.3
2018-01-13T10:03:08.285Z,962.29
2018-01-13T10:04:08.300Z,962.29
2018-01-13T10:05:08.314Z,962.3
2018-01-13T10:06:08.328Z,962.31
2018-01-13T10:07:08.343Z,962.28
2018-01-13T10:08:08.358Z,962.33
2018-01-13T10:09:08.375Z,962.3
2018-01-13T10:10:08.391Z,962.27
2018-01-13T10:11:08.407Z,962.29
2018-01-13T10:12:08.419Z,962.25
2018-01-13T10:13:08.435Z,962.24
2018-01-13T10:14:08.458Z,962.25
2018-01-13T10:15:08.468Z,962.23
2018-01-13T10:16:08.481Z,962.21
2018-01-13T10:17:08.495Z,962.21
2018-01-13T10:18:08.509Z,962.19
2018-01-13T10:19:08.525Z,962.2
2018-01-13T10:20:08.538Z,962.13
2018-01-13T10:21:08.554Z,962.14
2018-01-13T10:22:08.569Z,962.13
2018-01-13T10:23:08.583Z,962.08
2018-01-13T10:24:08.599Z,962.1
2018-01-13T10:25:08.615Z,962.07
2018-01-13T10:26:08.628Z,962.07
2018-01-13T10:27:08.643Z,962.14
2018-01-13T10:28:08.673Z,962.11
2018-01-13T10:29:08.673Z,962.08
2018-01-13T10:30:08.690Z,962.13
2018-01-13T10:31:08.703Z,962.09
2018-01-13T10:32:08.742Z,962.09
2018-01-13T10:33:08.739Z,962.12
2018-01-13T10:34:08.748Z,962.08
2018-01-13T10:35:08.766Z,962.07
2018-01-13T10:36:08.780Z,962.08
2018-01-13T10:37:08.795Z,962.04
2018-01-13T10:38:08.809Z,962.08
2018-01-13T10:39:08.827Z,962.07
2018-01-13T10:40:08.841Z,962.05
2018-01-13T10:41:08.855Z,961.99
2018-01-13T10:42:08.870Z,962
2018-01-13T10:43:08.885Z,962.02
2018-01-13T10:44:08.899Z,961.99
2018-01-13T10:45:08.914Z,961.99
2018-01-13T10:46:08.931Z,962.01
2018-01-13T10:47:08.945Z,962.02
2018-01-13T10:48:08.961Z,962.01
2018-01-13T10:49:08.975Z,962.02
2018-01-13T10:50:08.990Z,962
2018-01-13T10:51:09.006Z,961.97
2018-01-13T10:52:09.022Z,961.93
2018-01-13T10:53:09.034Z,961.94
2018-01-13T10:54:09.050Z,961.93
2018-01-13T10:55:09.066Z,961.93
2018-01-13T10:56:09.080Z,961.91
2018-01-13T10:57:09.094Z,961.88
2018-01-13T10:58:09.111Z,961.92
2018-01-13T10:59:09.126Z,961.88
2018-01-13T11:00:09.140Z,961.86
2018-01-13T11:01:09.158Z,961.84
2018-01-13T11:02:09.172Z,961.85
2018-01-13T11:03:09.185Z,961.85
2018-01-13T11:04:09.199Z,961.84
2018-01-13T11:05:09.214Z,961.8
2018-01-13T11:06:09.229Z,961.8
2018-01-13T11:07:09.244Z,961.79
2018-01-13T11:08:09.258Z,961.81
2018-01-13T11:09:09.276Z,961.78
2018-01-13T11:10:09.289Z,961.81
2018-01-13T11:11:09.303Z,961.79
2018-01-13T11:12:09.317Z,961.75
2018-01-13T11:13:09.333Z,961.74
2018-01-13T11:14:09.348Z,961.74
2018-01-13T11:15:09.364Z,961.71
2018-01-13T11:16:09.378Z,961.8
2018-01-13T11:17:09.397Z,961.71
2018-01-13T11:18:09.408Z,961.77
2018-01-13T11:19:09.422Z,961.72
2018-01-13T11:20:09.436Z,961.72
2018-01-13T11:21:09.453Z,961.7
2018-01-13T11:22:09.469Z,961.65
2018-01-13T11:23:09.485Z,961.59
2018-01-13T11:24:09.498Z,961.64
2018-01-13T11:25:09.511Z,961.64
2018-01-13T11:26:09.526Z,961.61
2018-01-13T11:27:09.541Z,961.62
2018-01-13T11:28:09.555Z,961.56
2018-01-13T11:29:09.569Z,961.6
2018-01-13T11:30:09.591Z,961.59
2018-01-13T11:31:09.601Z,961.54
2018-01-13T11:32:09.614Z,961.51
2018-01-13T11:33:09.627Z,961.5
2018-01-13T11:34:09.644Z,961.54
2018-01-13T11:35:09.658Z,961.48
2018-01-13T11:36:09.671Z,961.5
2018-01-13T11:37:09.735Z,961.48
2018-01-13T11:38:09.701Z,961.48
2018-01-13T11:39:09.715Z,961.49
2018-01-13T11:40:09.730Z,961.48
2018-01-13T11:41:09.745Z,961.49
2018-01-13T11:42:09.760Z,961.44
2018-01-13T11:43:09.775Z,961.47
2018-01-13T11:44:09.789Z,961.42
2018-01-13T11:45:09.804Z,961.45
2018-01-13T11:46:09.818Z,961.46
2018-01-13T11:47:09.833Z,961.47
2018-01-13T11:48:09.850Z,961.44
2018-01-13T11:49:09.861Z,961.48
2018-01-13T11:50:09.877Z,961.48
2018-01-13T11:51:09.890Z,961.43
2018-01-13T11:52:09.911Z,961.42
2018-01-13T11:53:09.920Z,961.45
2018-01-13T11:54:10.034Z,961.44
2018-01-13T11:55:09.949Z,961.46
2018-01-13T11:56:09.964Z,961.41
2018-01-13T11:57:09.978Z,961.39
2018-01-13T11:58:09.991Z,961.41
2018-01-13T11:59:10.212Z,961.44
2018-01-13T12:00:10.023Z,961.4
2018-01-13T12:01:10.038Z,961.42
2018-01-13T12:02:10.050Z,961.42
2018-01-13T12:03:10.067Z,961.45
2018-01-13T12:04:10.182Z,961.4
2018-01-13T12:05:10.095Z,961.38
2018-01-13T12:06:10.110Z,961.36
2018-01-13T12:07:10.125Z,961.33
2018-01-13T12:08:10.141Z,961.33
2018-01-13T12:09:10.204Z,961.28
2018-01-13T12:10:10.169Z,961.28
2018-01-13T12:11:10.183Z,961.26
2018-01-13T12:12:10.199Z,961.23
2018-01-13T12:13:10.213Z,961.2
2018-01-13T12:14:10.229Z,961.25
2018-01-13T12:15:10.242Z,961.22
2018-01-13T12:16:10.257Z,961.19
2018-01-13T12:17:10.272Z,961.22
2018-01-13T12:18:10.286Z,961.18
2018-01-13T12:19:10.302Z,961.18
2018-01-13T12:20:10.316Z,961.2
2018-01-13T12:21:10.348Z,961.22
2018-01-13T12:22:10.345Z,961.19
2018-01-13T12:23:10.362Z,961.18
2018-01-13T12:24:10.375Z,961.17
2018-01-13T12:25:10.390Z,961.2
2018-01-13T12:26:10.455Z,961.13
2018-01-13T12:27:10.420Z,961.15
2018-01-13T12:28:10.434Z,961.15
2018-01-13T12:29:10.449Z,961.11
2018-01-13T12:30:10.463Z,961.16
2018-01-13T12:31:10.477Z,961.1
2018-01-13T12:32:10.493Z,961.12